Terminal Aerodrome Forecast
Issued by NWS Wilmington, OH

Current Version | Previous Version | Text Only | Print | Product List | Glossary Off
Versions: 1 2 3 4 5 6 7 8 9 10 11 12 13 14 15 16

000
FTUS41 KILN 281700
TAFDAY
TAF
KDAY 281738Z 2818/0118 10005KT P6SM BKN100
     FM282100 10007KT P6SM SCT025 BKN060
     FM010200 12005KT P6SM -SN BKN025 OVC040
      TEMPO 0105/0109 1SM -SN OVC012
     FM010900 14005KT 1SM -SN OVC012
      TEMPO 0111/0115 1/2SM SN OVC005
     FM011600 24006KT 3SM -SN OVC009=

USA.gov is the U.S. government's official web portal to all federal, state and local government web resources and services.